KBJJ/BJJ METAR and TAF weather

Enter ICAO airport designator
Station Type Date Time Source
KBJJ METAR 2018/10/21 03:56 UTC NOAA

KBJJ 210356Z AUTO 33016G23KT 10SM OVC036 03/01 A2999 RMK AO2 PK WND 32026/0319 RAE36SNB04E06 SLP159 P0001 T00330011


Station Type Date Time Source
KBJJ Decoded METAR 2018/10/21 03:56 UTC NOAA

WOOSTER WAYNE COUNTY AIRPORT, OH, United States (KBJJ) 40-52N 81-53W 343M
Oct 20, 2018 - 11:56 PM EDT / 2018.10.21 0356 UTC
Wind: from the NNW (330 degrees) at 18 MPH (16 KT) gusting to 26 MPH (23 KT):0
Visibility: 10 mile(s):0
Sky conditions: overcast
Precipitation last hour: 0.01 inches
Temperature: 37.9 F (3.3 C)
Dew Point: 34.0 F (1.1 C)
Relative Humidity: 85%
Pressure (altimeter): 29.99 in. Hg (1015 hPa)
ob: KBJJ 210356Z AUTO 33016G23KT 10SM OVC036 03/01 A2999 RMK AO2 PK WND 32026/0319 RAE36SNB04E06 SLP159 P0001 T00330011
cycle: 4

Station Type Date Time Source
KBJJ TAF UTC NOAA

Error!


Example: see airport list